createdAt,value
2023-03-13T00:00:41.800Z,4.65
2023-03-13T00:05:44.917Z,4.68
2023-03-13T00:10:47.973Z,4.18
2023-03-13T00:15:51.100Z,4.35
2023-03-13T00:21:01.899Z,4.32
2023-03-13T00:26:14.223Z,3.70
2023-03-13T00:31:29.627Z,3.97
2023-03-13T00:36:35.517Z,4.32
2023-03-13T00:41:38.783Z,3.60
2023-03-13T00:46:42.485Z,4.38
2023-03-13T00:51:45.573Z,5.15
2023-03-13T00:56:49.745Z,5.00
2023-03-13T01:01:53.579Z,4.20
2023-03-13T01:06:58.235Z,3.45
2023-03-13T01:12:01.535Z,3.17
2023-03-13T01:17:07.507Z,2.97
2023-03-13T01:22:12.884Z,3.28
2023-03-13T01:27:16.121Z,3.72
2023-03-13T01:32:19.429Z,3.42
2023-03-13T01:37:22.565Z,4.38
2023-03-13T01:42:26.060Z,2.90
2023-03-13T01:47:29.649Z,3.20
2023-03-13T01:52:49.740Z,3.42
2023-03-13T01:58:02.462Z,3.17
2023-03-13T02:03:11.504Z,3.97
2023-03-13T02:08:35.940Z,3.28
2023-03-13T02:13:39.368Z,2.72
2023-03-13T02:18:43.704Z,3.40
2023-03-13T02:24:37.186Z,3.10
2023-03-13T02:29:41.827Z,3.20
2023-03-13T02:34:50.319Z,3.47
2023-03-13T02:39:55.231Z,3.70
2023-03-13T02:44:58.701Z,3.80
2023-03-13T02:50:02.123Z,3.83
2023-03-13T02:55:15.881Z,3.50
2023-03-13T03:00:20.277Z,3.83
2023-03-13T03:05:23.798Z,3.78
2023-03-13T03:10:27.287Z,3.75
2023-03-13T03:15:30.467Z,3.50
2023-03-13T03:20:34.322Z,3.13
2023-03-13T03:25:37.444Z,3.40
2023-03-13T03:30:41.352Z,3.95
2023-03-13T03:35:44.437Z,3.22
2023-03-13T03:40:49.808Z,3.15
2023-03-13T03:45:54.098Z,2.85
2023-03-13T03:50:58.234Z,2.83
2023-03-13T03:56:02.469Z,2.28
2023-03-13T04:01:06.174Z,2.83
2023-03-13T04:06:10.333Z,2.30
2023-03-13T04:11:13.517Z,2.42
2023-03-13T04:16:22.535Z,2.63
2023-03-13T04:21:27.008Z,3.05
2023-03-13T04:26:37.026Z,2.70
2023-03-13T04:31:40.175Z,2.70
2023-03-13T04:36:57.788Z,1.88
2023-03-13T04:42:20.022Z,2.70
2023-03-13T04:47:43.321Z,2.10
2023-03-13T04:53:09.214Z,1.83
2023-03-13T04:58:30.856Z,2.30
2023-03-13T05:03:47.114Z,1.90
2023-03-13T05:09:06.580Z,2.42
2023-03-13T05:14:16.242Z,1.90
2023-03-13T05:19:42.416Z,2.58
2023-03-13T05:24:57.814Z,2.70
2023-03-13T05:30:27.621Z,2.13
2023-03-13T05:35:49.520Z,2.78
2023-03-13T05:41:15.849Z,2.03
2023-03-13T05:46:37.513Z,2.30
2023-03-13T05:52:03.548Z,2.58
2023-03-13T05:57:23.196Z,3.65
2023-03-13T06:02:40.961Z,3.13
2023-03-13T06:07:47.125Z,3.37
2023-03-13T06:12:55.952Z,3.53
2023-03-13T06:18:02.935Z,6.97
2023-03-13T06:23:06.392Z,8.48
2023-03-13T06:28:09.578Z,7.85
2023-03-13T06:33:12.717Z,8.38
2023-03-13T06:38:15.824Z,5.50
2023-03-13T06:43:20.054Z,3.67
2023-03-13T06:48:23.872Z,4.25
2023-03-13T06:53:26.933Z,3.88
2023-03-13T06:58:32.806Z,3.95
2023-03-13T07:03:36.916Z,3.87
2023-03-13T07:08:40.756Z,2.95
2023-03-13T07:13:44.454Z,3.25
2023-03-13T07:18:48.039Z,2.60
2023-03-13T07:23:51.873Z,1.60
2023-03-13T07:28:56.788Z,1.75
2023-03-13T07:34:03.003Z,1.70
2023-03-13T07:39:07.012Z,1.50
2023-03-13T07:44:10.625Z,1.80
2023-03-13T07:49:13.843Z,2.80
2023-03-13T07:54:17.904Z,2.72
2023-03-13T07:59:21.485Z,2.83
2023-03-13T08:04:24.883Z,4.25
2023-03-13T08:09:28.463Z,4.07
2023-03-13T08:14:31.608Z,3.42
2023-03-13T08:19:34.743Z,2.88
2023-03-13T08:24:38.295Z,2.90
2023-03-13T08:29:41.453Z,1.95
2023-03-13T08:34:45.620Z,2.22
2023-03-13T08:39:50.171Z,1.90
2023-03-13T08:44:54.199Z,2.00
2023-03-13T08:49:58.384Z,2.33
2023-03-13T08:55:01.627Z,2.35
2023-03-13T09:00:07.211Z,2.67
2023-03-13T09:05:10.364Z,2.13
2023-03-13T09:10:13.471Z,2.10
2023-03-13T09:15:17.120Z,2.88
2023-03-13T09:20:33.830Z,3.78
2023-03-13T09:25:39.848Z,3.65
2023-03-13T09:30:43.532Z,3.72
2023-03-13T09:35:53.484Z,3.47
2023-03-13T09:41:06.190Z,3.90
2023-03-13T09:46:34.267Z,3.35
2023-03-13T09:51:43.565Z,3.75
2023-03-13T09:57:00.721Z,4.50
2023-03-13T10:02:16.687Z,3.75
2023-03-13T10:07:21.624Z,3.85
2023-03-13T10:12:30.219Z,3.75
2023-03-13T10:17:39.421Z,3.72
2023-03-13T10:22:46.657Z,3.80
2023-03-13T10:27:51.269Z,3.17
2023-03-13T10:32:59.030Z,3.38
2023-03-13T10:38:11.393Z,3.00
2023-03-13T10:43:22.306Z,3.28
2023-03-13T10:48:30.356Z,2.75
2023-03-13T10:53:37.013Z,2.60
2023-03-13T10:58:50.283Z,2.40
2023-03-13T11:03:57.679Z,4.88
2023-03-13T11:09:18.490Z,2.88
2023-03-13T11:14:26.313Z,3.22
2023-03-13T11:19:53.534Z,3.05
2023-03-13T11:25:22.738Z,2.47
2023-03-13T11:30:46.312Z,3.20
2023-03-13T11:36:01.594Z,1.70
2023-03-13T11:41:21.557Z,2.38
2023-03-13T11:46:45.882Z,2.70
2023-03-13T11:52:02.444Z,2.65
2023-03-13T11:57:44.205Z,3.72
2023-03-13T12:02:58.226Z,3.00
2023-03-13T12:08:29.078Z,2.85
2023-03-13T12:13:56.600Z,2.30
2023-03-13T12:19:00.234Z,2.20
2023-03-13T12:24:28.065Z,2.65
2023-03-13T12:29:50.316Z,2.10
2023-03-13T12:35:08.079Z,1.98
2023-03-13T12:40:35.228Z,2.45
2023-03-13T12:46:09.909Z,2.47
2023-03-13T12:51:49.194Z,2.25
2023-03-13T12:57:17.991Z,2.75
2023-03-13T13:02:27.953Z,2.95
2023-03-13T13:07:35.266Z,2.47
2023-03-13T13:12:43.693Z,3.60
2023-03-13T13:18:07.103Z,3.28
2023-03-13T13:23:23.959Z,3.17
2023-03-13T13:28:35.235Z,2.90
2023-03-13T13:33:39.496Z,3.75
2023-03-13T13:38:43.223Z,3.95
2023-03-13T13:43:49.234Z,3.00
2023-03-13T13:49:08.179Z,4.60
2023-03-13T13:54:43.172Z,4.50
2023-03-13T13:59:51.972Z,3.85
2023-03-13T14:05:04.365Z,3.85
2023-03-13T14:10:32.680Z,3.45
2023-03-13T14:15:37.192Z,3.90
2023-03-13T14:20:53.789Z,3.03
2023-03-13T14:25:57.475Z,3.05
2023-03-13T14:31:00.651Z,3.10
2023-03-13T14:36:04.697Z,2.40
2023-03-13T14:41:24.072Z,2.70
2023-03-13T14:46:33.597Z,2.85
2023-03-13T14:51:40.691Z,2.55
2023-03-13T14:56:45.448Z,3.92
2023-03-13T15:02:19.101Z,4.15
2023-03-13T15:07:23.216Z,3.30
2023-03-13T15:12:26.358Z,3.25
2023-03-13T15:17:30.236Z,3.35
2023-03-13T15:22:39.589Z,3.33
2023-03-13T15:27:42.676Z,4.38
2023-03-13T15:32:47.257Z,4.85
2023-03-13T15:37:50.772Z,4.95
2023-03-13T15:42:55.820Z,4.88
2023-03-13T15:48:00.999Z,5.80
2023-03-13T15:53:20.163Z,5.80
2023-03-13T15:58:24.953Z,4.90
2023-03-13T16:03:29.183Z,4.32
2023-03-13T16:08:36.453Z,5.72
2023-03-13T16:13:40.922Z,5.30
2023-03-13T16:18:44.020Z,5.47
2023-03-13T16:23:47.297Z,5.07
2023-03-13T16:28:51.270Z,6.00
2023-03-13T16:33:55.605Z,5.72
2023-03-13T16:39:05.771Z,7.00
2023-03-13T16:44:09.648Z,6.57
2023-03-13T16:49:16.157Z,8.00
2023-03-13T16:54:19.802Z,6.57
2023-03-13T16:59:24.562Z,7.47
2023-03-13T17:04:28.784Z,6.53
2023-03-13T17:09:32.345Z,11.00
2023-03-13T17:14:35.849Z,9.93
2023-03-13T17:19:38.918Z,10.80
2023-03-13T17:24:42.850Z,8.93
2023-03-13T17:29:46.028Z,8.43
2023-03-13T17:34:49.641Z,8.60
2023-03-13T17:39:52.750Z,9.68
2023-03-13T17:44:56.807Z,8.13
2023-03-13T17:50:00.815Z,7.70
2023-03-13T17:55:05.297Z,4.07
2023-03-13T18:00:45.419Z,3.72
2023-03-13T18:05:49.465Z,3.72
2023-03-13T18:10:54.126Z,2.83
2023-03-13T18:15:57.989Z,3.95
2023-03-13T18:21:02.406Z,5.40
2023-03-13T18:26:18.178Z,4.68
2023-03-13T18:31:22.701Z,5.82
2023-03-13T18:36:27.849Z,5.60
2023-03-13T18:41:32.056Z,6.70
2023-03-13T18:46:35.663Z,7.40
2023-03-13T18:51:39.374Z,5.72
2023-03-13T18:56:45.546Z,6.43
2023-03-13T19:01:49.609Z,5.77
2023-03-13T19:06:53.543Z,5.30
2023-03-13T19:11:57.115Z,5.20
2023-03-13T19:17:00.189Z,4.97
2023-03-13T19:22:04.291Z,5.75
2023-03-13T19:27:08.000Z,5.72
2023-03-13T19:32:20.046Z,5.78
2023-03-13T19:37:23.725Z,4.70
2023-03-13T19:42:28.778Z,4.65
2023-03-13T19:47:31.950Z,4.68
2023-03-13T19:52:36.133Z,4.40
2023-03-13T19:57:40.144Z,5.22
2023-03-13T20:02:44.324Z,4.70
2023-03-13T20:07:49.094Z,4.68
2023-03-13T20:12:53.917Z,4.40
2023-03-13T20:17:56.955Z,5.03
2023-03-13T20:23:00.062Z,4.82
2023-03-13T20:28:03.848Z,3.97
2023-03-13T20:33:07.523Z,4.20
2023-03-13T20:38:11.176Z,6.05
2023-03-13T20:43:15.302Z,5.63
2023-03-13T20:48:19.631Z,5.63
2023-03-13T20:53:24.425Z,6.63
2023-03-13T20:58:27.919Z,5.47
2023-03-13T21:03:36.141Z,3.13
2023-03-13T21:08:39.844Z,2.42
2023-03-13T21:13:43.538Z,2.72
2023-03-13T21:18:47.606Z,2.05
2023-03-13T21:23:52.392Z,2.72
2023-03-13T21:28:55.828Z,2.30
2023-03-13T21:33:59.506Z,2.53
2023-03-13T21:39:03.100Z,2.35
2023-03-13T21:44:08.188Z,2.22
2023-03-13T21:49:12.436Z,2.22
2023-03-13T21:54:16.037Z,2.78
2023-03-13T21:59:22.100Z,3.30
2023-03-13T22:04:25.920Z,3.08
2023-03-13T22:09:29.375Z,4.93
2023-03-13T22:14:32.868Z,4.38
2023-03-13T22:19:36.861Z,4.63
2023-03-13T22:24:40.996Z,4.68
2023-03-13T22:29:44.274Z,4.95
2023-03-13T22:34:48.409Z,5.35
2023-03-13T22:39:54.135Z,5.80
2023-03-13T22:44:57.682Z,5.68
2023-03-13T22:50:00.745Z,5.85
2023-03-13T22:55:04.752Z,5.32
2023-03-13T23:00:09.393Z,6.20
2023-03-13T23:05:12.501Z,6.90
2023-03-13T23:10:16.636Z,6.40
2023-03-13T23:15:20.273Z,5.63
2023-03-13T23:20:23.755Z,5.88
2023-03-13T23:25:27.462Z,5.55
2023-03-13T23:30:30.515Z,4.25
2023-03-13T23:35:37.377Z,5.75
2023-03-13T23:40:41.280Z,4.97
2023-03-13T23:45:45.149Z,4.20
2023-03-13T23:50:48.275Z,5.05
2023-03-13T23:55:59.018Z,2.50
